Kennoway, United Kingdom
Current Conditions -  °F | °C
As of 8:50 AM on Sunday 26 Oct 2014 (Local Time) from EGQL Reporting Station
Scattered Clouds Scattered Clouds  
Wind Chill: 54°   Ceiling: Unl
Heat Index: 54°   Visibility: 6mi
Dew Point: 46°   Wind: 25mph
Humidity: 77%   Direction: 250°WSW
Pressure: 29.59"   Gusts: NA
Location:  56.21°N, 3.05°W
Report Text: EGQL 260750Z 25022KT 9999 FEW026 SCT032 12/08 Q1002 BLU
Loading
Personal Weather Stations






























Interactive Weather Map
Tropical Storm Tracking
New forecast layout! Learn more

10-Day Weather Forecast

Advertisements
Track Severe Weather on mobile